sensor_id;sensor_type;location;lat;lon;timestamp;P1;durP1;ratioP1;P2;durP2;ratioP2
57389;SDS011;43217;52.694;6.214;2023-07-20T00:01:45;5.45;;;4.95;;
57389;SDS011;43217;52.694;6.214;2023-07-20T00:04:11;5.10;;;4.75;;
57389;SDS011;43217;52.694;6.214;2023-07-20T00:06:39;5.50;;;5.10;;
57389;SDS011;43217;52.694;6.214;2023-07-20T00:09:08;6.65;;;4.93;;
57389;SDS011;43217;52.694;6.214;2023-07-20T00:11:35;5.60;;;4.60;;
57389;SDS011;43217;52.694;6.214;2023-07-20T00:14:05;4.45;;;4.13;;
57389;SDS011;43217;52.694;6.214;2023-07-20T00:16:31;4.63;;;4.32;;
57389;SDS011;43217;52.694;6.214;2023-07-20T00:18:57;4.40;;;4.10;;
57389;SDS011;43217;52.694;6.214;2023-07-20T00:21:22;4.30;;;4.00;;
57389;SDS011;43217;52.694;6.214;2023-07-20T00:23:48;4.25;;;3.92;;
57389;SDS011;43217;52.694;6.214;2023-07-20T00:26:14;3.90;;;3.60;;
57389;SDS011;43217;52.694;6.214;2023-07-20T00:28:39;4.45;;;4.10;;
57389;SDS011;43217;52.694;6.214;2023-07-20T00:31:05;4.55;;;4.15;;
57389;SDS011;43217;52.694;6.214;2023-07-20T00:33:30;6.65;;;6.05;;
57389;SDS011;43217;52.694;6.214;2023-07-20T00:35:56;3.78;;;3.47;;
57389;SDS011;43217;52.694;6.214;2023-07-20T00:38:22;4.20;;;3.70;;
57389;SDS011;43217;52.694;6.214;2023-07-20T00:40:47;3.70;;;3.40;;
57389;SDS011;43217;52.694;6.214;2023-07-20T00:43:14;3.30;;;3.07;;
57389;SDS011;43217;52.694;6.214;2023-07-20T00:45:40;3.72;;;3.42;;
57389;SDS011;43217;52.694;6.214;2023-07-20T00:48:06;3.58;;;3.28;;
57389;SDS011;43217;52.694;6.214;2023-07-20T00:50:32;3.90;;;3.60;;
57389;SDS011;43217;52.694;6.214;2023-07-20T00:52:59;3.83;;;3.53;;
57389;SDS011;43217;52.694;6.214;2023-07-20T00:55:26;3.70;;;3.40;;
57389;SDS011;43217;52.694;6.214;2023-07-20T00:57:53;3.75;;;3.47;;
57389;SDS011;43217;52.694;6.214;2023-07-20T01:00:19;3.67;;;3.38;;
57389;SDS011;43217;52.694;6.214;2023-07-20T01:02:45;3.90;;;3.60;;
57389;SDS011;43217;52.694;6.214;2023-07-20T01:05:12;3.60;;;3.30;;
57389;SDS011;43217;52.694;6.214;2023-07-20T01:12:55;3.13;;;2.92;;
57389;SDS011;43217;52.694;6.214;2023-07-20T01:15:22;4.20;;;3.10;;
57389;SDS011;43217;52.694;6.214;2023-07-20T01:17:48;3.25;;;2.95;;
57389;SDS011;43217;52.694;6.214;2023-07-20T01:20:14;3.55;;;3.30;;
57389;SDS011;43217;52.694;6.214;2023-07-20T01:33:57;4.03;;;3.72;;
57389;SDS011;43217;52.694;6.214;2023-07-20T01:36:26;4.45;;;4.15;;
57389;SDS011;43217;52.694;6.214;2023-07-20T01:38:54;4.50;;;4.20;;
57389;SDS011;43217;52.694;6.214;2023-07-20T01:41:21;4.20;;;3.90;;
57389;SDS011;43217;52.694;6.214;2023-07-20T01:43:47;4.72;;;4.32;;
57389;SDS011;43217;52.694;6.214;2023-07-20T01:46:13;4.57;;;4.28;;
57389;SDS011;43217;52.694;6.214;2023-07-20T01:48:38;4.50;;;4.15;;
57389;SDS011;43217;52.694;6.214;2023-07-20T01:51:04;5.28;;;4.78;;
57389;SDS011;43217;52.694;6.214;2023-07-20T01:53:30;4.63;;;4.32;;
57389;SDS011;43217;52.694;6.214;2023-07-20T01:55:56;5.28;;;4.68;;
57389;SDS011;43217;52.694;6.214;2023-07-20T01:58:22;5.22;;;4.75;;
57389;SDS011;43217;52.694;6.214;2023-07-20T02:00:48;4.95;;;4.55;;
57389;SDS011;43217;52.694;6.214;2023-07-20T02:03:14;5.50;;;5.05;;
57389;SDS011;43217;52.694;6.214;2023-07-20T02:05:42;5.97;;;5.38;;
57389;SDS011;43217;52.694;6.214;2023-07-20T02:08:08;5.07;;;4.68;;
57389;SDS011;43217;52.694;6.214;2023-07-20T02:10:34;5.25;;;4.93;;
57389;SDS011;43217;52.694;6.214;2023-07-20T02:13:00;5.53;;;5.13;;
57389;SDS011;43217;52.694;6.214;2023-07-20T02:15:26;5.82;;;5.30;;
57389;SDS011;43217;52.694;6.214;2023-07-20T02:17:52;5.13;;;4.72;;
57389;SDS011;43217;52.694;6.214;2023-07-20T02:20:18;5.90;;;5.40;;
57389;SDS011;43217;52.694;6.214;2023-07-20T02:22:44;5.68;;;5.18;;
57389;SDS011;43217;52.694;6.214;2023-07-20T02:25:10;6.15;;;5.65;;
57389;SDS011;43217;52.694;6.214;2023-07-20T02:27:36;5.45;;;4.95;;
57389;SDS011;43217;52.694;6.214;2023-07-20T02:30:03;6.80;;;6.05;;
57389;SDS011;43217;52.694;6.214;2023-07-20T02:32:29;6.28;;;5.88;;
57389;SDS011;43217;52.694;6.214;2023-07-20T02:34:56;5.90;;;5.40;;
57389;SDS011;43217;52.694;6.214;2023-07-20T02:37:21;5.47;;;5.07;;
57389;SDS011;43217;52.694;6.214;2023-07-20T02:39:47;5.50;;;5.10;;
57389;SDS011;43217;52.694;6.214;2023-07-20T02:42:13;5.50;;;5.10;;
57389;SDS011;43217;52.694;6.214;2023-07-20T02:44:39;7.03;;;6.43;;
57389;SDS011;43217;52.694;6.214;2023-07-20T02:47:05;7.32;;;6.72;;
57389;SDS011;43217;52.694;6.214;2023-07-20T02:49:31;6.45;;;5.95;;
57389;SDS011;43217;52.694;6.214;2023-07-20T02:51:56;6.38;;;5.82;;
57389;SDS011;43217;52.694;6.214;2023-07-20T02:54:22;6.57;;;6.07;;
57389;SDS011;43217;52.694;6.214;2023-07-20T02:56:48;6.68;;;6.18;;
57389;SDS011;43217;52.694;6.214;2023-07-20T02:59:13;6.88;;;6.28;;
57389;SDS011;43217;52.694;6.214;2023-07-20T03:01:39;6.50;;;6.05;;
57389;SDS011;43217;52.694;6.214;2023-07-20T03:04:07;6.70;;;6.18;;
57389;SDS011;43217;52.694;6.214;2023-07-20T03:06:35;7.15;;;6.60;;
57389;SDS011;43217;52.694;6.214;2023-07-20T03:09:01;6.53;;;5.95;;
57389;SDS011;43217;52.694;6.214;2023-07-20T03:11:27;5.93;;;5.38;;
57389;SDS011;43217;52.694;6.214;2023-07-20T03:13:52;6.85;;;6.25;;
57389;SDS011;43217;52.694;6.214;2023-07-20T03:16:18;6.60;;;6.10;;
57389;SDS011;43217;52.694;6.214;2023-07-20T03:18:45;6.13;;;5.55;;
57389;SDS011;43217;52.694;6.214;2023-07-20T03:21:11;6.93;;;6.28;;
57389;SDS011;43217;52.694;6.214;2023-07-20T03:23:37;6.13;;;5.70;;
57389;SDS011;43217;52.694;6.214;2023-07-20T03:26:04;6.45;;;5.95;;
57389;SDS011;43217;52.694;6.214;2023-07-20T03:28:30;7.25;;;6.65;;
57389;SDS011;43217;52.694;6.214;2023-07-20T03:30:56;6.65;;;6.15;;
57389;SDS011;43217;52.694;6.214;2023-07-20T03:33:24;6.43;;;5.82;;
57389;SDS011;43217;52.694;6.214;2023-07-20T03:35:51;6.80;;;6.30;;
57389;SDS011;43217;52.694;6.214;2023-07-20T03:38:16;6.70;;;6.18;;
57389;SDS011;43217;52.694;6.214;2023-07-20T03:40:52;6.90;;;6.40;;
57389;SDS011;43217;52.694;6.214;2023-07-20T03:43:19;6.97;;;6.47;;
57389;SDS011;43217;52.694;6.214;2023-07-20T03:45:45;6.53;;;6.00;;
57389;SDS011;43217;52.694;6.214;2023-07-20T03:48:12;7.13;;;6.50;;
57389;SDS011;43217;52.694;6.214;2023-07-20T03:50:43;6.97;;;6.38;;
57389;SDS011;43217;52.694;6.214;2023-07-20T03:53:10;7.00;;;6.43;;
57389;SDS011;43217;52.694;6.214;2023-07-20T03:55:36;6.32;;;5.82;;
57389;SDS011;43217;52.694;6.214;2023-07-20T03:58:02;7.18;;;6.47;;
57389;SDS011;43217;52.694;6.214;2023-07-20T04:00:28;7.53;;;6.90;;
57389;SDS011;43217;52.694;6.214;2023-07-20T04:02:54;7.78;;;7.13;;
57389;SDS011;43217;52.694;6.214;2023-07-20T04:05:20;6.30;;;5.80;;
57389;SDS011;43217;52.694;6.214;2023-07-20T04:07:45;6.72;;;6.22;;
57389;SDS011;43217;52.694;6.214;2023-07-20T04:10:12;6.65;;;6.13;;
57389;SDS011;43217;52.694;6.214;2023-07-20T04:12:37;7.00;;;6.30;;
57389;SDS011;43217;52.694;6.214;2023-07-20T04:15:03;6.80;;;6.25;;
57389;SDS011;43217;52.694;6.214;2023-07-20T04:17:29;6.90;;;6.30;;
57389;SDS011;43217;52.694;6.214;2023-07-20T04:19:55;6.80;;;6.30;;
57389;SDS011;43217;52.694;6.214;2023-07-20T04:22:21;6.75;;;6.25;;
57389;SDS011;43217;52.694;6.214;2023-07-20T04:24:47;6.82;;;6.22;;
57389;SDS011;43217;52.694;6.214;2023-07-20T04:27:12;6.80;;;6.30;;
57389;SDS011;43217;52.694;6.214;2023-07-20T04:29:38;6.60;;;6.00;;
57389;SDS011;43217;52.694;6.214;2023-07-20T04:32:04;6.65;;;6.15;;
57389;SDS011;43217;52.694;6.214;2023-07-20T04:34:30;6.57;;;6.05;;
57389;SDS011;43217;52.694;6.214;2023-07-20T04:36:55;6.30;;;5.70;;
57389;SDS011;43217;52.694;6.214;2023-07-20T04:39:21;6.47;;;5.88;;
57389;SDS011;43217;52.694;6.214;2023-07-20T04:41:47;6.47;;;5.97;;
57389;SDS011;43217;52.694;6.214;2023-07-20T04:44:13;5.95;;;5.45;;
57389;SDS011;43217;52.694;6.214;2023-07-20T04:46:39;6.53;;;6.00;;
57389;SDS011;43217;52.694;6.214;2023-07-20T04:49:05;5.35;;;4.95;;
57389;SDS011;43217;52.694;6.214;2023-07-20T04:51:31;5.90;;;5.40;;
57389;SDS011;43217;52.694;6.214;2023-07-20T04:53:57;6.03;;;5.53;;
57389;SDS011;43217;52.694;6.214;2023-07-20T04:56:23;5.65;;;5.25;;
57389;SDS011;43217;52.694;6.214;2023-07-20T04:58:49;5.15;;;4.75;;
57389;SDS011;43217;52.694;6.214;2023-07-20T05:01:15;5.30;;;4.90;;
57389;SDS011;43217;52.694;6.214;2023-07-20T05:03:41;5.68;;;5.20;;
57389;SDS011;43217;52.694;6.214;2023-07-20T05:06:07;5.10;;;4.60;;
57389;SDS011;43217;52.694;6.214;2023-07-20T05:08:32;5.60;;;4.93;;
57389;SDS011;43217;52.694;6.214;2023-07-20T05:10:59;4.90;;;4.55;;
57389;SDS011;43217;52.694;6.214;2023-07-20T05:13:25;5.43;;;4.93;;
57389;SDS011;43217;52.694;6.214;2023-07-20T05:15:51;5.68;;;5.18;;
57389;SDS011;43217;52.694;6.214;2023-07-20T05:18:18;6.63;;;4.70;;
57389;SDS011;43217;52.694;6.214;2023-07-20T05:20:48;4.97;;;4.57;;
57389;SDS011;43217;52.694;6.214;2023-07-20T05:23:13;5.07;;;4.68;;
57389;SDS011;43217;52.694;6.214;2023-07-20T05:25:39;5.45;;;4.15;;
57389;SDS011;43217;52.694;6.214;2023-07-20T05:28:05;4.95;;;4.55;;
57389;SDS011;43217;52.694;6.214;2023-07-20T05:30:31;4.40;;;4.00;;
57389;SDS011;43217;52.694;6.214;2023-07-20T05:32:57;4.03;;;3.22;;
57389;SDS011;43217;52.694;6.214;2023-07-20T05:35:23;3.97;;;3.58;;
57389;SDS011;43217;52.694;6.214;2023-07-20T05:37:48;4.00;;;3.60;;
57389;SDS011;43217;52.694;6.214;2023-07-20T05:40:15;4.50;;;3.50;;
57389;SDS011;43217;52.694;6.214;2023-07-20T05:42:44;3.47;;;3.17;;
57389;SDS011;43217;52.694;6.214;2023-07-20T05:45:11;4.32;;;3.50;;
57389;SDS011;43217;52.694;6.214;2023-07-20T05:47:37;4.00;;;3.58;;
57389;SDS011;43217;52.694;6.214;2023-07-20T05:50:03;3.85;;;3.40;;
57389;SDS011;43217;52.694;6.214;2023-07-20T05:52:28;3.72;;;3.28;;
57389;SDS011;43217;52.694;6.214;2023-07-20T05:54:54;3.65;;;3.35;;
57389;SDS011;43217;52.694;6.214;2023-07-20T05:57:20;3.08;;;2.78;;
57389;SDS011;43217;52.694;6.214;2023-07-20T05:59:46;4.40;;;3.47;;
57389;SDS011;43217;52.694;6.214;2023-07-20T06:02:11;3.53;;;3.22;;
57389;SDS011;43217;52.694;6.214;2023-07-20T06:04:38;3.78;;;2.55;;
57389;SDS011;43217;52.694;6.214;2023-07-20T06:07:04;3.22;;;2.80;;
57389;SDS011;43217;52.694;6.214;2023-07-20T06:09:30;2.40;;;2.20;;
57389;SDS011;43217;52.694;6.214;2023-07-20T06:11:56;3.22;;;2.30;;
57389;SDS011;43217;52.694;6.214;2023-07-20T06:14:21;4.07;;;2.42;;
57389;SDS011;43217;52.694;6.214;2023-07-20T06:16:47;2.70;;;2.50;;
57389;SDS011;43217;52.694;6.214;2023-07-20T06:19:13;2.13;;;2.03;;
57389;SDS011;43217;52.694;6.214;2023-07-20T06:21:39;2.15;;;2.05;;
57389;SDS011;43217;52.694;6.214;2023-07-20T06:24:04;3.58;;;2.30;;
57389;SDS011;43217;52.694;6.214;2023-07-20T06:26:30;2.78;;;2.25;;
57389;SDS011;43217;52.694;6.214;2023-07-20T06:28:57;2.20;;;2.00;;
57389;SDS011;43217;52.694;6.214;2023-07-20T06:31:23;2.50;;;1.63;;
57389;SDS011;43217;52.694;6.214;2023-07-20T06:33:48;2.20;;;1.70;;
57389;SDS011;43217;52.694;6.214;2023-07-20T06:36:17;1.50;;;1.40;;
57389;SDS011;43217;52.694;6.214;2023-07-20T06:38:44;1.95;;;1.55;;
57389;SDS011;43217;52.694;6.214;2023-07-20T06:41:09;1.77;;;1.15;;
57389;SDS011;43217;52.694;6.214;2023-07-20T06:43:35;1.58;;;1.38;;
57389;SDS011;43217;52.694;6.214;2023-07-20T06:46:01;1.63;;;1.52;;
57389;SDS011;43217;52.694;6.214;2023-07-20T06:48:26;1.80;;;1.20;;
57389;SDS011;43217;52.694;6.214;2023-07-20T06:50:52;2.90;;;1.05;;
57389;SDS011;43217;52.694;6.214;2023-07-20T06:53:18;2.15;;;0.90;;
57389;SDS011;43217;52.694;6.214;2023-07-20T06:55:44;1.85;;;1.10;;
57389;SDS011;43217;52.694;6.214;2023-07-20T06:58:10;1.27;;;0.70;;
57389;SDS011;43217;52.694;6.214;2023-07-20T07:00:36;2.83;;;0.87;;
57389;SDS011;43217;52.694;6.214;2023-07-20T07:03:02;1.25;;;0.70;;
57389;SDS011;43217;52.694;6.214;2023-07-20T07:05:28;0.77;;;0.70;;
57389;SDS011;43217;52.694;6.214;2023-07-20T07:07:53;1.92;;;0.75;;
57389;SDS011;43217;52.694;6.214;2023-07-20T07:10:19;0.98;;;0.70;;
57389;SDS011;43217;52.694;6.214;2023-07-20T07:12:45;2.25;;;0.90;;
57389;SDS011;43217;52.694;6.214;2023-07-20T07:15:11;1.10;;;0.60;;
57389;SDS011;43217;52.694;6.214;2023-07-20T07:17:36;1.10;;;0.60;;
57389;SDS011;43217;52.694;6.214;2023-07-20T07:20:03;1.10;;;0.80;;
57389;SDS011;43217;52.694;6.214;2023-07-20T07:22:29;0.73;;;0.52;;
57389;SDS011;43217;52.694;6.214;2023-07-20T07:24:55;1.23;;;0.70;;
57389;SDS011;43217;52.694;6.214;2023-07-20T07:27:21;1.67;;;0.70;;
57389;SDS011;43217;52.694;6.214;2023-07-20T07:29:46;1.45;;;0.63;;
57389;SDS011;43217;52.694;6.214;2023-07-20T07:32:14;1.60;;;0.80;;
57389;SDS011;43217;52.694;6.214;2023-07-20T07:34:40;1.75;;;0.63;;
57389;SDS011;43217;52.694;6.214;2023-07-20T07:37:06;1.13;;;0.50;;
57389;SDS011;43217;52.694;6.214;2023-07-20T07:39:32;2.25;;;0.60;;
57389;SDS011;43217;52.694;6.214;2023-07-20T07:41:57;1.15;;;0.47;;
57389;SDS011;43217;52.694;6.214;2023-07-20T07:44:23;1.33;;;0.70;;
57389;SDS011;43217;52.694;6.214;2023-07-20T07:46:49;2.35;;;0.80;;
57389;SDS011;43217;52.694;6.214;2023-07-20T07:49:16;2.30;;;0.67;;
57389;SDS011;43217;52.694;6.214;2023-07-20T07:51:42;1.25;;;0.50;;
57389;SDS011;43217;52.694;6.214;2023-07-20T07:54:07;1.03;;;0.60;;
57389;SDS011;43217;52.694;6.214;2023-07-20T07:56:33;0.97;;;0.60;;
57389;SDS011;43217;52.694;6.214;2023-07-20T07:58:59;1.08;;;0.60;;
57389;SDS011;43217;52.694;6.214;2023-07-20T08:01:24;1.73;;;0.68;;
57389;SDS011;43217;52.694;6.214;2023-07-20T08:03:50;1.63;;;0.70;;
57389;SDS011;43217;52.694;6.214;2023-07-20T08:06:16;0.75;;;0.75;;
57389;SDS011;43217;52.694;6.214;2023-07-20T08:08:42;1.58;;;0.60;;
57389;SDS011;43217;52.694;6.214;2023-07-20T08:11:07;1.27;;;0.70;;
57389;SDS011;43217;52.694;6.214;2023-07-20T08:13:34;2.13;;;0.77;;
57389;SDS011;43217;52.694;6.214;2023-07-20T08:16:00;1.10;;;0.70;;
57389;SDS011;43217;52.694;6.214;2023-07-20T08:18:27;2.13;;;0.80;;
57389;SDS011;43217;52.694;6.214;2023-07-20T08:20:53;1.45;;;0.88;;
57389;SDS011;43217;52.694;6.214;2023-07-20T08:23:19;1.75;;;0.70;;
57389;SDS011;43217;52.694;6.214;2023-07-20T08:25:45;2.08;;;0.73;;
57389;SDS011;43217;52.694;6.214;2023-07-20T08:28:11;0.82;;;0.77;;
57389;SDS011;43217;52.694;6.214;2023-07-20T08:30:39;2.45;;;0.75;;
57389;SDS011;43217;52.694;6.214;2023-07-20T08:33:09;2.03;;;0.80;;
57389;SDS011;43217;52.694;6.214;2023-07-20T08:35:37;1.75;;;0.85;;
57389;SDS011;43217;52.694;6.214;2023-07-20T08:38:03;0.95;;;0.73;;
57389;SDS011;43217;52.694;6.214;2023-07-20T08:40:30;1.05;;;0.85;;
57389;SDS011;43217;52.694;6.214;2023-07-20T08:42:57;1.13;;;0.80;;
57389;SDS011;43217;52.694;6.214;2023-07-20T08:45:26;1.67;;;0.70;;
57389;SDS011;43217;52.694;6.214;2023-07-20T08:47:56;0.88;;;0.65;;
57389;SDS011;43217;52.694;6.214;2023-07-20T08:50:23;0.60;;;0.60;;
57389;SDS011;43217;52.694;6.214;2023-07-20T08:52:55;2.42;;;0.73;;
57389;SDS011;43217;52.694;6.214;2023-07-20T08:55:22;1.17;;;0.73;;
57389;SDS011;43217;52.694;6.214;2023-07-20T08:57:50;1.85;;;0.93;;
57389;SDS011;43217;52.694;6.214;2023-07-20T09:00:21;0.73;;;0.50;;
57389;SDS011;43217;52.694;6.214;2023-07-20T09:02:49;0.60;;;0.60;;
57389;SDS011;43217;52.694;6.214;2023-07-20T09:05:16;0.98;;;0.50;;
57389;SDS011;43217;52.694;6.214;2023-07-20T09:07:43;0.98;;;0.70;;
57389;SDS011;43217;52.694;6.214;2023-07-20T09:10:08;1.20;;;0.60;;
57389;SDS011;43217;52.694;6.214;2023-07-20T09:12:36;2.05;;;0.60;;
57389;SDS011;43217;52.694;6.214;2023-07-20T09:15:05;0.63;;;0.60;;
57389;SDS011;43217;52.694;6.214;2023-07-20T09:17:32;1.40;;;0.85;;
57389;SDS011;43217;52.694;6.214;2023-07-20T09:19:58;0.98;;;0.60;;
57389;SDS011;43217;52.694;6.214;2023-07-20T09:22:29;2.15;;;0.85;;
57389;SDS011;43217;52.694;6.214;2023-07-20T09:24:56;1.20;;;0.70;;
57389;SDS011;43217;52.694;6.214;2023-07-20T09:27:22;1.05;;;0.57;;
57389;SDS011;43217;52.694;6.214;2023-07-20T09:30:01;2.58;;;0.85;;
57389;SDS011;43217;52.694;6.214;2023-07-20T09:32:27;1.75;;;0.80;;
57389;SDS011;43217;52.694;6.214;2023-07-20T09:34:53;0.85;;;0.60;;
57389;SDS011;43217;52.694;6.214;2023-07-20T09:37:20;0.82;;;0.73;;
57389;SDS011;43217;52.694;6.214;2023-07-20T09:39:51;2.05;;;0.80;;
57389;SDS011;43217;52.694;6.214;2023-07-20T09:42:17;2.35;;;0.80;;
57389;SDS011;43217;52.694;6.214;2023-07-20T09:44:44;1.25;;;0.60;;
57389;SDS011;43217;52.694;6.214;2023-07-20T09:47:10;1.87;;;0.80;;
57389;SDS011;43217;52.694;6.214;2023-07-20T09:49:39;1.40;;;1.03;;
57389;SDS011;43217;52.694;6.214;2023-07-20T09:52:06;0.70;;;0.60;;
57389;SDS011;43217;52.694;6.214;2023-07-20T09:54:39;1.17;;;0.70;;
57389;SDS011;43217;52.694;6.214;2023-07-20T09:57:08;0.80;;;0.60;;
57389;SDS011;43217;52.694;6.214;2023-07-20T09:59:35;0.60;;;0.60;;
57389;SDS011;43217;52.694;6.214;2023-07-20T10:02:01;1.70;;;0.75;;
57389;SDS011;43217;52.694;6.214;2023-07-20T10:04:30;1.45;;;0.90;;
57389;SDS011;43217;52.694;6.214;2023-07-20T10:06:58;1.15;;;0.70;;
57389;SDS011;43217;52.694;6.214;2023-07-20T10:09:29;1.08;;;0.60;;
57389;SDS011;43217;52.694;6.214;2023-07-20T10:11:57;1.65;;;0.80;;
57389;SDS011;43217;52.694;6.214;2023-07-20T10:14:24;2.33;;;0.60;;
57389;SDS011;43217;52.694;6.214;2023-07-20T10:16:54;0.75;;;0.52;;
57389;SDS011;43217;52.694;6.214;2023-07-20T10:22:16;1.52;;;0.80;;
57389;SDS011;43217;52.694;6.214;2023-07-20T10:24:44;2.17;;;0.88;;
57389;SDS011;43217;52.694;6.214;2023-07-20T10:27:12;1.88;;;0.85;;
57389;SDS011;43217;52.694;6.214;2023-07-20T10:29:40;0.77;;;0.70;;
57389;SDS011;43217;52.694;6.214;2023-07-20T10:32:06;1.15;;;0.90;;
57389;SDS011;43217;52.694;6.214;2023-07-20T10:34:34;1.08;;;0.90;;
57389;SDS011;43217;52.694;6.214;2023-07-20T10:36:59;1.10;;;1.00;;
57389;SDS011;43217;52.694;6.214;2023-07-20T10:39:26;1.45;;;0.80;;
57389;SDS011;43217;52.694;6.214;2023-07-20T10:42:08;1.55;;;0.73;;
57389;SDS011;43217;52.694;6.214;2023-07-20T10:44:41;1.45;;;0.90;;
57389;SDS011;43217;52.694;6.214;2023-07-20T10:47:10;1.23;;;0.70;;
57389;SDS011;43217;52.694;6.214;2023-07-20T10:52:25;1.40;;;0.85;;
57389;SDS011;43217;52.694;6.214;2023-07-20T10:54:52;2.25;;;0.80;;
57389;SDS011;43217;52.694;6.214;2023-07-20T10:57:21;1.02;;;0.93;;
57389;SDS011;43217;52.694;6.214;2023-07-20T10:59:49;2.58;;;0.93;;
57389;SDS011;43217;52.694;6.214;2023-07-20T11:02:17;1.67;;;1.13;;
57389;SDS011;43217;52.694;6.214;2023-07-20T11:04:45;2.22;;;0.95;;
57389;SDS011;43217;52.694;6.214;2023-07-20T11:07:16;1.38;;;0.80;;
57389;SDS011;43217;52.694;6.214;2023-07-20T11:09:43;1.23;;;1.00;;
57389;SDS011;43217;52.694;6.214;2023-07-20T11:12:12;1.63;;;1.00;;
57389;SDS011;43217;52.694;6.214;2023-07-20T11:14:43;1.88;;;1.10;;
57389;SDS011;43217;52.694;6.214;2023-07-20T11:17:19;1.52;;;1.10;;
57389;SDS011;43217;52.694;6.214;2023-07-20T11:19:47;1.58;;;1.27;;
57389;SDS011;43217;52.694;6.214;2023-07-20T11:22:15;2.22;;;1.00;;
57389;SDS011;43217;52.694;6.214;2023-07-20T11:24:42;1.70;;;0.90;;
57389;SDS011;43217;52.694;6.214;2023-07-20T11:27:08;1.55;;;1.00;;
57389;SDS011;43217;52.694;6.214;2023-07-20T11:29:37;1.42;;;1.30;;
57389;SDS011;43217;52.694;6.214;2023-07-20T11:32:03;1.73;;;1.02;;
57389;SDS011;43217;52.694;6.214;2023-07-20T11:34:30;1.70;;;0.83;;
57389;SDS011;43217;52.694;6.214;2023-07-20T11:36:56;3.03;;;1.15;;
57389;SDS011;43217;52.694;6.214;2023-07-20T11:39:22;0.98;;;0.80;;
57389;SDS011;43217;52.694;6.214;2023-07-20T11:41:54;1.88;;;0.90;;
57389;SDS011;43217;52.694;6.214;2023-07-20T11:44:21;2.25;;;1.40;;
57389;SDS011;43217;52.694;6.214;2023-07-20T11:47:00;2.35;;;0.88;;
57389;SDS011;43217;52.694;6.214;2023-07-20T11:49:28;2.35;;;0.95;;
57389;SDS011;43217;52.694;6.214;2023-07-20T11:51:54;0.90;;;0.80;;
57389;SDS011;43217;52.694;6.214;2023-07-20T11:54:21;1.23;;;0.70;;
57389;SDS011;43217;52.694;6.214;2023-07-20T11:56:48;1.02;;;0.93;;
57389;SDS011;43217;52.694;6.214;2023-07-20T11:59:13;1.95;;;1.00;;
57389;SDS011;43217;52.694;6.214;2023-07-20T12:01:39;2.08;;;0.80;;
57389;SDS011;43217;52.694;6.214;2023-07-20T12:04:05;0.60;;;0.60;;
57389;SDS011;43217;52.694;6.214;2023-07-20T12:06:32;0.70;;;0.60;;
57389;SDS011;43217;52.694;6.214;2023-07-20T12:08:58;1.60;;;0.75;;
57389;SDS011;43217;52.694;6.214;2023-07-20T12:11:57;0.60;;;0.60;;
57389;SDS011;43217;52.694;6.214;2023-07-20T12:14:16;1.98;;;0.90;;
57389;SDS011;43217;52.694;6.214;2023-07-20T12:16:42;0.60;;;0.60;;
57389;SDS011;43217;52.694;6.214;2023-07-20T12:19:10;1.70;;;0.75;;
57389;SDS011;43217;52.694;6.214;2023-07-20T12:21:37;0.98;;;0.90;;
57389;SDS011;43217;52.694;6.214;2023-07-20T12:24:05;0.82;;;0.60;;
57389;SDS011;43217;52.694;6.214;2023-07-20T12:26:32;0.93;;;0.60;;
57389;SDS011;43217;52.694;6.214;2023-07-20T12:28:58;1.88;;;0.80;;
57389;SDS011;43217;52.694;6.214;2023-07-20T12:31:25;1.23;;;0.73;;
57389;SDS011;43217;52.694;6.214;2023-07-20T12:33:52;0.88;;;0.70;;
57389;SDS011;43217;52.694;6.214;2023-07-20T12:36:20;1.77;;;0.70;;
57389;SDS011;43217;52.694;6.214;2023-07-20T12:38:46;0.88;;;0.50;;
57389;SDS011;43217;52.694;6.214;2023-07-20T12:41:12;2.08;;;0.80;;
57389;SDS011;43217;52.694;6.214;2023-07-20T12:43:41;1.98;;;0.88;;
57389;SDS011;43217;52.694;6.214;2023-07-20T12:46:09;1.15;;;0.60;;
57389;SDS011;43217;52.694;6.214;2023-07-20T12:48:37;1.58;;;0.80;;
57389;SDS011;43217;52.694;6.214;2023-07-20T12:51:05;0.85;;;0.70;;
57389;SDS011;43217;52.694;6.214;2023-07-20T12:53:31;1.63;;;0.73;;
57389;SDS011;43217;52.694;6.214;2023-07-20T12:55:57;0.85;;;0.60;;
57389;SDS011;43217;52.694;6.214;2023-07-20T12:58:23;0.63;;;0.60;;
57389;SDS011;43217;52.694;6.214;2023-07-20T13:00:49;1.27;;;0.70;;
57389;SDS011;43217;52.694;6.214;2023-07-20T13:03:15;0.50;;;0.50;;
57389;SDS011;43217;52.694;6.214;2023-07-20T13:05:43;0.50;;;0.50;;
57389;SDS011;43217;52.694;6.214;2023-07-20T13:08:09;0.60;;;0.52;;
57389;SDS011;43217;52.694;6.214;2023-07-20T13:10:35;1.25;;;0.55;;
57389;SDS011;43217;52.694;6.214;2023-07-20T13:13:00;1.02;;;0.70;;
57389;SDS011;43217;52.694;6.214;2023-07-20T13:15:30;0.68;;;0.65;;
57389;SDS011;43217;52.694;6.214;2023-07-20T13:17:57;1.05;;;0.70;;
57389;SDS011;43217;52.694;6.214;2023-07-20T13:20:24;0.50;;;0.50;;
57389;SDS011;43217;52.694;6.214;2023-07-20T13:22:50;0.63;;;0.60;;
57389;SDS011;43217;52.694;6.214;2023-07-20T13:25:16;1.25;;;0.70;;
57389;SDS011;43217;52.694;6.214;2023-07-20T13:27:41;2.25;;;0.80;;
57389;SDS011;43217;52.694;6.214;2023-07-20T13:30:07;0.68;;;0.55;;
57389;SDS011;43217;52.694;6.214;2023-07-20T13:32:35;1.23;;;0.60;;
57389;SDS011;43217;52.694;6.214;2023-07-20T13:35:01;1.48;;;0.70;;
57389;SDS011;43217;52.694;6.214;2023-07-20T13:37:27;1.33;;;0.70;;
57389;SDS011;43217;52.694;6.214;2023-07-20T13:39:53;1.10;;;0.63;;
57389;SDS011;43217;52.694;6.214;2023-07-20T13:42:19;0.70;;;0.70;;
57389;SDS011;43217;52.694;6.214;2023-07-20T13:44:46;1.42;;;0.70;;
57389;SDS011;43217;52.694;6.214;2023-07-20T13:47:15;1.02;;;0.70;;
57389;SDS011;43217;52.694;6.214;2023-07-20T13:49:40;0.73;;;0.60;;
57389;SDS011;43217;52.694;6.214;2023-07-20T13:52:06;0.52;;;0.50;;
57389;SDS011;43217;52.694;6.214;2023-07-20T13:54:32;1.13;;;0.60;;
57389;SDS011;43217;52.694;6.214;2023-07-20T13:56:58;0.80;;;0.80;;
57389;SDS011;43217;52.694;6.214;2023-07-20T13:59:23;0.60;;;0.60;;
57389;SDS011;43217;52.694;6.214;2023-07-20T14:01:50;2.42;;;0.70;;
57389;SDS011;43217;52.694;6.214;2023-07-20T14:04:15;0.70;;;0.70;;
57389;SDS011;43217;52.694;6.214;2023-07-20T14:06:42;1.05;;;0.50;;
57389;SDS011;43217;52.694;6.214;2023-07-20T14:09:08;0.75;;;0.52;;
57389;SDS011;43217;52.694;6.214;2023-07-20T14:11:34;0.60;;;0.60;;
57389;SDS011;43217;52.694;6.214;2023-07-20T14:13:59;1.88;;;0.80;;
57389;SDS011;43217;52.694;6.214;2023-07-20T14:16:25;1.38;;;0.70;;
57389;SDS011;43217;52.694;6.214;2023-07-20T14:18:51;0.85;;;0.60;;
57389;SDS011;43217;52.694;6.214;2023-07-20T14:21:17;0.55;;;0.55;;
57389;SDS011;43217;52.694;6.214;2023-07-20T14:23:45;0.50;;;0.50;;
57389;SDS011;43217;52.694;6.214;2023-07-20T14:28:37;0.67;;;0.50;;
57389;SDS011;43217;52.694;6.214;2023-07-20T14:31:03;1.20;;;0.57;;
57389;SDS011;43217;52.694;6.214;2023-07-20T14:33:30;0.77;;;0.60;;
57389;SDS011;43217;52.694;6.214;2023-07-20T14:35:56;0.77;;;0.50;;
57389;SDS011;43217;52.694;6.214;2023-07-20T14:38:22;1.27;;;0.60;;
57389;SDS011;43217;52.694;6.214;2023-07-20T14:40:47;0.82;;;0.70;;
57389;SDS011;43217;52.694;6.214;2023-07-20T14:43:13;0.82;;;0.60;;
57389;SDS011;43217;52.694;6.214;2023-07-20T14:45:42;0.85;;;0.52;;
57389;SDS011;43217;52.694;6.214;2023-07-20T14:48:08;0.75;;;0.75;;
57389;SDS011;43217;52.694;6.214;2023-07-20T14:50:34;0.70;;;0.60;;
57389;SDS011;43217;52.694;6.214;2023-07-20T14:53:00;0.63;;;0.60;;
57389;SDS011;43217;52.694;6.214;2023-07-20T14:55:25;0.95;;;0.52;;
57389;SDS011;43217;52.694;6.214;2023-07-20T14:57:51;1.20;;;0.70;;
57389;SDS011;43217;52.694;6.214;2023-07-20T15:00:17;0.65;;;0.65;;
57389;SDS011;43217;52.694;6.214;2023-07-20T15:02:43;1.23;;;0.80;;
57389;SDS011;43217;52.694;6.214;2023-07-20T15:05:09;0.63;;;0.63;;
57389;SDS011;43217;52.694;6.214;2023-07-20T15:07:36;1.03;;;0.70;;
57389;SDS011;43217;52.694;6.214;2023-07-20T15:10:02;4.18;;;0.82;;